Time;durP1;ratioP1;P1;durP2;ratioP2;P2;SDS_P1;SDS_P2;PMS_P1;PMS_P2;Temp;Humidity;BMP_temperature;BMP_pressure;BME280_temperature;BME280_humidity;BME280_pressure;Samples;Min_cycle;Max_cycle;Signal;HPM_P1;HPM_P2
2021/08/27 00:01:16;;;;;;;9.63;4.70;;;15.40;99.90;;;;;;5071364;28;20380;-61
2021/08/27 00:03:42;;;;;;;10.25;4.70;;;13.80;99.90;;;;;;5071045;28;20379;-59
2021/08/27 00:06:07;;;;;;;10.40;4.20;;;15.40;99.90;;;;;;5070678;28;20801;-61
2021/08/27 00:08:33;;;;;;;8.82;5.00;;;15.40;99.90;;;;;;5071216;28;20383;-61
2021/08/27 00:10:59;;;;;;;10.43;4.20;;;15.30;99.90;;;;;;5070860;28;20430;-60
2021/08/27 00:13:25;;;;;;;8.60;4.32;;;15.30;99.90;;;;;;5071195;28;20400;-61
2021/08/27 00:15:50;;;;;;;10.03;4.07;;;15.40;99.90;;;;;;5069887;28;20482;-60
2021/08/27 00:18:16;;;;;;;10.47;4.23;;;15.40;99.90;;;;;;5070884;28;20387;-62
2021/08/27 00:20:42;;;;;;;8.38;4.28;;;15.30;99.90;;;;;;5070944;28;20380;-58
2021/08/27 00:23:08;;;;;;;11.48;4.80;;;15.30;99.90;;;;;;5070285;28;20449;-63
2021/08/27 00:25:34;;;;;;;10.95;4.30;;;15.30;99.90;;;;;;5070888;28;20406;-61
2021/08/27 00:27:59;;;;;;;11.55;4.55;;;15.30;99.90;;;;;;5070135;28;20407;-60
2021/08/27 00:30:25;;;;;;;9.00;4.40;;;15.20;99.90;;;;;;5070826;28;20475;-60
2021/08/27 00:32:51;;;;;;;9.63;4.27;;;15.20;99.90;;;;;;5069856;28;20437;-60
2021/08/27 00:35:16;;;;;;;10.55;4.40;;;15.20;99.90;;;;;;5069462;28;20907;-60
2021/08/27 00:37:42;;;;;;;9.23;4.47;;;15.10;99.90;;;;;;5070497;28;20726;-58
2021/08/27 00:40:08;;;;;;;9.20;4.20;;;15.10;99.90;;;;;;5069503;28;20737;-60
2021/08/27 00:42:34;;;;;;;9.80;4.50;;;14.90;99.90;;;;;;5070718;28;20392;-60
2021/08/27 00:45:00;;;;;;;8.82;4.65;;;14.90;99.90;;;;;;5069681;28;20383;-60
2021/08/27 00:47:26;;;;;;;7.70;4.10;;;14.90;99.90;;;;;;5070180;28;20399;-60
2021/08/27 00:49:52;;;;;;;9.20;4.70;;;14.80;99.90;;;;;;5069352;28;20407;-60
2021/08/27 00:52:17;;;;;;;10.77;4.50;;;14.80;99.90;;;;;;5070244;28;20415;-60
2021/08/27 00:54:53;;;;;;;8.82;4.15;;;14.80;99.90;;;;;;5069475;28;20484;-58
2021/08/27 00:57:23;;;;;;;8.82;4.43;;;14.70;99.90;;;;;;5070211;28;20496;-60
2021/08/27 00:59:49;;;;;;;9.63;5.05;;;14.70;99.90;;;;;;5069354;28;20427;-60
2021/08/27 01:02:15;;;;;;;11.10;4.65;;;14.70;99.90;;;;;;5069578;28;20432;-61
2021/08/27 01:04:44;;;;;;;10.57;4.50;;;14.70;99.90;;;;;;5070362;28;20437;-61
2021/08/27 01:07:17;;;;;;;9.48;4.60;;;14.80;99.90;;;;;;5069249;28;20878;-61
2021/08/27 01:10:04;;;;;;;9.02;4.15;;;14.80;99.90;;;;;;5069463;28;20458;-59
2021/08/27 01:12:45;;;;;;;8.85;4.80;;;14.90;99.90;;;;;;5069841;28;20379;-61
2021/08/27 01:15:17;;;;;;;11.45;4.50;;;14.90;99.90;;;;;;5069615;28;20466;-61
2021/08/27 01:17:49;;;;;;;10.57;5.00;;;15.00;99.90;;;;;;5069636;28;20467;-59
2021/08/27 01:20:43;;;;;;;9.33;4.70;;;15.10;99.90;;;;;;5069869;28;20387;-61
2021/08/27 01:23:14;;;;;;;10.32;5.15;;;15.10;99.90;;;;;;5068932;28;20826;-60
2021/08/27 01:25:43;;;;;;;13.32;5.25;;;15.10;99.90;;;;;;5069236;28;20433;-61
2021/08/27 01:28:10;;;;;;;9.20;5.00;;;15.10;99.90;;;;;;5068811;28;20383;-60
2021/08/27 01:30:54;;;;;;;9.10;4.80;;;15.10;99.90;;;;;;5068952;28;20380;-60
2021/08/27 01:33:24;;;;;;;10.75;4.90;;;15.20;99.90;;;;;;5068542;28;20384;-62
2021/08/27 01:35:55;;;;;;;10.07;5.20;;;15.20;99.90;;;;;;5068468;28;20471;-61
2021/08/27 01:38:26;;;;;;;9.93;5.00;;;15.30;99.90;;;;;;5069282;28;20414;-61
2021/08/27 01:40:54;;;;;;;10.13;4.75;;;15.30;99.90;;;;;;5068108;28;20390;-60
2021/08/27 01:43:24;;;;;;;9.38;4.95;;;15.40;99.90;;;;;;5069382;28;20498;-61
2021/08/27 01:45:51;;;;;;;8.48;4.85;;;15.30;99.90;;;;;;5068667;28;20457;-60
2021/08/27 01:48:17;;;;;;;11.10;5.10;;;15.40;99.90;;;;;;5069165;28;20404;-61
2021/08/27 01:50:44;;;;;;;10.05;5.07;;;15.50;99.90;;;;;;5069563;28;20384;-61
2021/08/27 01:53:10;;;;;;;10.00;4.90;;;15.50;99.90;;;;;;5068735;28;20425;-61
2021/08/27 01:55:38;;;;;;;9.85;4.97;;;15.50;99.90;;;;;;5069217;28;20388;-61
2021/08/27 01:58:05;;;;;;;9.18;5.00;;;15.40;99.90;;;;;;5068224;28;20596;-61
2021/08/27 02:00:31;;;;;;;12.20;6.00;;;15.40;99.90;;;;;;5069121;28;20418;-61
2021/08/27 02:02:58;;;;;;;12.35;4.80;;;15.40;99.90;;;;;;5068299;28;20420;-61
2021/08/27 02:05:25;;;;;;;9.60;5.10;;;15.30;99.90;;;;;;5069142;28;20421;-61
2021/08/27 02:07:53;;;;;;;9.43;5.10;;;15.20;99.90;;;;;;5068288;28;20380;-60
2021/08/27 02:10:19;;;;;;;8.90;4.90;;;15.20;99.90;;;;;;5068978;28;20466;-61
2021/08/27 02:12:45;;;;;;;10.88;5.20;;;15.10;99.90;;;;;;5068354;28;20384;-59
2021/08/27 02:15:12;;;;;;;11.50;5.03;;;15.10;99.90;;;;;;5068629;28;20394;-59
2021/08/27 02:17:37;;;;;;;10.18;5.10;;;15.10;99.90;;;;;;5068937;28;20473;-61
2021/08/27 02:20:04;;;;;;;14.43;5.40;;;15.20;99.90;;;;;;5067906;28;20679;-61
2021/08/27 02:22:32;;;;;;;11.00;5.80;;;15.20;99.90;;;;;;5068755;28;20396;-61
2021/08/27 02:25:12;;;;;;;11.07;5.00;;;15.20;99.90;;;;;;5068294;28;20448;-61
2021/08/27 02:27:40;;;;;;;9.52;4.88;;;16.50;99.90;;;;;;5068773;28;20392;-61
2021/08/27 02:30:08;;;;;;;10.30;5.20;;;15.40;99.90;;;;;;5068110;28;20532;-63
2021/08/27 02:32:34;;;;;;;11.20;5.03;;;15.40;99.90;;;;;;5068531;28;20814;-60
2021/08/27 02:35:02;;;;;;;8.70;5.20;;;15.50;99.90;;;;;;5067900;28;20376;-61
2021/08/27 02:37:33;;;;;;;13.20;4.43;;;15.50;99.90;;;;;;5068807;28;20490;-61
2021/08/27 02:40:01;;;;;;;9.73;5.00;;;15.50;99.90;;;;;;5068160;28;20387;-60
2021/08/27 02:42:28;;;;;;;10.32;4.60;;;15.50;99.90;;;;;;5068857;28;20379;-61
2021/08/27 02:44:56;;;;;;;10.15;5.10;;;15.40;99.90;;;;;;5068024;28;20376;-62
2021/08/27 02:47:23;;;;;;;10.30;4.85;;;15.30;99.90;;;;;;5068892;28;20410;-61
2021/08/27 02:49:50;;;;;;;13.00;5.20;;;15.10;99.90;;;;;;5068049;28;20487;-60
2021/08/27 02:52:34;;;;;;;9.98;4.90;;;15.00;99.90;;;;;;5068217;28;20376;-61
2021/08/27 02:55:19;;;;;;;9.50;4.80;;;14.90;99.90;;;;;;5067736;28;20459;-63
2021/08/27 02:58:05;;;;;;;11.27;5.68;;;14.90;99.90;;;;;;5068254;28;20459;-59
2021/08/27 03:00:38;;;;;;;12.98;7.18;;;15.00;99.90;;;;;;5068606;28;20456;-61
2021/08/27 03:03:05;;;;;;;10.95;5.88;;;14.90;99.90;;;;;;5067903;28;20402;-61
2021/08/27 03:05:42;;;;;;;12.70;5.50;;;15.00;99.90;;;;;;5068316;28;20375;-60
2021/08/27 03:08:15;;;;;;;10.13;5.60;;;14.90;99.90;;;;;;5067851;28;20375;-61
2021/08/27 03:10:50;;;;;;;13.07;5.80;;;15.00;99.90;;;;;;5068707;28;20384;-61
2021/08/27 03:13:24;;;;;;;10.40;6.40;;;14.90;99.90;;;;;;5068321;28;20383;-61
2021/08/27 03:15:55;;;;;;;10.27;5.50;;;14.90;99.90;;;;;;5066163;28;20498;-60
2021/08/27 03:18:42;;;;;;;11.25;5.90;;;14.80;99.90;;;;;;5068454;28;20383;-62
2021/08/27 03:21:16;;;;;;;12.20;6.40;;;15.90;99.90;;;;;;5067472;28;20420;-61
2021/08/27 03:23:44;;;;;;;14.02;6.20;;;14.80;99.90;;;;;;5068811;28;20426;-61
2021/08/27 03:26:16;;;;;;;11.05;6.35;;;14.80;99.90;;;;;;5071314;28;20973;-61
2021/08/27 03:28:47;;;;;;;14.18;6.35;;;14.80;99.90;;;;;;5072164;28;20413;-61
2021/08/27 03:31:13;;;;;;;12.52;6.68;;;14.70;99.90;;;;;;5071323;28;20384;-60
2021/08/27 03:33:40;;;;;;;13.00;7.30;;;14.50;99.90;;;;;;5071610;28;20419;-60
2021/08/27 03:36:06;;;;;;;15.90;7.35;;;14.40;99.90;;;;;;5071405;28;20493;-62
2021/08/27 03:38:33;;;;;;;13.00;7.15;;;14.40;99.90;;;;;;5071583;28;20437;-60
2021/08/27 03:40:59;;;;;;;14.10;7.35;;;14.40;99.90;;;;;;5071039;28;20466;-60
2021/08/27 03:43:26;;;;;;;16.00;8.03;;;14.30;99.90;;;;;;5071827;28;20410;-62
2021/08/27 03:45:53;;;;;;;15.07;8.30;;;15.90;99.90;;;;;;5071022;28;20406;-61
2021/08/27 03:48:21;;;;;;;15.05;8.13;;;14.30;99.90;;;;;;5071500;28;20499;-61
2021/08/27 03:50:51;;;;;;;12.70;7.70;;;14.40;99.90;;;;;;5070853;28;20852;-59
2021/08/27 03:53:17;;;;;;;13.05;8.05;;;14.40;99.90;;;;;;5071356;28;20509;-61
2021/08/27 03:55:46;;;;;;;14.95;8.65;;;14.30;99.90;;;;;;5067471;28;20435;-61
2021/08/27 03:58:13;;;;;;;15.40;9.20;;;14.30;99.90;;;;;;5070503;28;20407;-62
2021/08/27 04:00:39;;;;;;;16.80;9.52;;;14.20;99.90;;;;;;5056297;28;20395;-61
2021/08/27 04:03:05;;;;;;;14.35;8.68;;;14.20;99.90;;;;;;5049995;28;20417;-60
2021/08/27 04:05:31;;;;;;;15.82;9.32;;;14.20;99.90;;;;;;5059781;28;20380;-61
2021/08/27 04:07:58;;;;;;;19.13;9.40;;;14.30;99.90;;;;;;5070199;28;20387;-61
2021/08/27 04:10:23;;;;;;;17.50;9.07;;;14.30;99.90;;;;;;5064514;28;20461;-61
2021/08/27 04:12:49;;;;;;;15.43;8.23;;;14.40;99.90;;;;;;5053070;28;20480;-59
2021/08/27 04:15:17;;;;;;;15.70;8.90;;;14.30;99.90;;;;;;5053015;28;20411;-60
2021/08/27 04:17:43;;;;;;;14.40;8.55;;;14.30;99.90;;;;;;5050950;28;20833;-61
2021/08/27 04:20:12;;;;;;;12.85;8.07;;;14.30;99.90;;;;;;5069542;28;20376;-61
2021/08/27 04:22:38;;;;;;;19.38;8.70;;;14.20;99.90;;;;;;5060230;28;20505;-61
2021/08/27 04:25:05;;;;;;;13.05;8.20;;;14.30;99.90;;;;;;5050199;28;20405;-60
2021/08/27 04:27:30;;;;;;;14.35;8.55;;;14.20;99.90;;;;;;5069584;28;20392;-61
2021/08/27 04:29:56;;;;;;;13.17;7.70;;;14.20;99.90;;;;;;5050311;28;20456;-61
2021/08/27 04:32:22;;;;;;;14.50;8.60;;;14.20;99.90;;;;;;5064713;28;20388;-61
2021/08/27 04:34:47;;;;;;;15.50;8.50;;;14.20;99.90;;;;;;5068416;28;20424;-59
2021/08/27 04:37:13;;;;;;;17.42;8.45;;;14.20;99.90;;;;;;5070430;28;20489;-61
2021/08/27 04:39:39;;;;;;;15.95;8.77;;;14.20;99.90;;;;;;5055983;28;20459;-60
2021/08/27 04:42:05;;;;;;;16.50;9.60;;;14.20;99.90;;;;;;5049773;28;20386;-61
2021/08/27 04:44:31;;;;;;;17.40;9.50;;;14.10;99.90;;;;;;5051060;28;20850;-61
2021/08/27 04:46:57;;;;;;;18.55;10.05;;;14.10;99.90;;;;;;5050005;28;20886;-60
2021/08/27 04:49:23;;;;;;;18.73;10.00;;;14.00;99.90;;;;;;5052157;28;20373;-61
2021/08/27 04:51:49;;;;;;;19.92;10.05;;;14.00;99.90;;;;;;5066085;28;20400;-59
2021/08/27 04:54:15;;;;;;;17.00;10.43;;;14.10;99.90;;;;;;5057895;28;20385;-61
2021/08/27 04:56:40;;;;;;;16.15;9.77;;;14.20;99.90;;;;;;5070391;28;20403;-61
2021/08/27 04:59:06;;;;;;;18.17;9.93;;;14.20;99.90;;;;;;5069649;28;20379;-61
2021/08/27 05:01:32;;;;;;;16.93;9.80;;;14.20;99.90;;;;;;5059076;28;20905;-61
2021/08/27 05:03:57;;;;;;;15.65;9.32;;;14.20;99.90;;;;;;5049621;28;20727;-61
2021/08/27 05:06:23;;;;;;;17.43;10.00;;;14.20;99.90;;;;;;5050789;28;20820;-60
2021/08/27 05:08:49;;;;;;;16.17;10.23;;;14.20;99.90;;;;;;5065513;28;20392;-59
2021/08/27 05:11:15;;;;;;;20.73;10.97;;;14.20;99.90;;;;;;5064702;28;20393;-61
2021/08/27 05:13:41;;;;;;;20.05;10.75;;;14.20;99.90;;;;;;5068930;28;20391;-61
2021/08/27 05:16:06;;;;;;;17.70;10.57;;;14.30;99.90;;;;;;5052882;28;20409;-61
2021/08/27 05:18:32;;;;;;;17.80;10.30;;;14.40;99.90;;;;;;5050107;28;20385;-61
2021/08/27 05:20:58;;;;;;;19.08;10.60;;;14.50;99.90;;;;;;5051463;28;20470;-61
2021/08/27 05:23:24;;;;;;;16.70;10.10;;;14.50;99.90;;;;;;5070063;28;20474;-61
2021/08/27 05:25:49;;;;;;;20.20;11.00;;;14.50;99.90;;;;;;5069616;28;20799;-59
2021/08/27 05:28:15;;;;;;;17.20;9.35;;;14.60;99.90;;;;;;5060043;28;20385;-61
2021/08/27 05:30:41;;;;;;;15.80;9.68;;;14.70;99.90;;;;;;5060995;28;20420;-61
2021/08/27 05:33:06;;;;;;;17.33;9.50;;;14.80;99.90;;;;;;5060136;28;20495;-61
2021/08/27 05:35:32;;;;;;;17.67;9.52;;;14.90;99.90;;;;;;5069212;28;20380;-61
2021/08/27 05:37:58;;;;;;;15.13;8.70;;;14.90;99.90;;;;;;5068191;28;20407;-61
2021/08/27 05:40:23;;;;;;;18.07;9.70;;;14.90;99.90;;;;;;5069555;28;20406;-61
2021/08/27 05:42:49;;;;;;;15.32;9.10;;;15.00;99.90;;;;;;5069356;28;20870;-59
2021/08/27 05:45:15;;;;;;;14.20;8.63;;;15.00;99.90;;;;;;5068716;28;20380;-62
2021/08/27 05:47:42;;;;;;;16.60;8.65;;;15.10;99.90;;;;;;5068354;28;20415;-61
2021/08/27 05:50:09;;;;;;;16.20;8.90;;;15.20;99.90;;;;;;5057756;28;20551;-61
2021/08/27 05:52:36;;;;;;;15.07;8.82;;;15.20;99.90;;;;;;5068207;28;20375;-61
2021/08/27 05:55:02;;;;;;;15.65;9.30;;;15.10;99.90;;;;;;5066858;28;20736;-62
2021/08/27 05:57:28;;;;;;;14.88;8.35;;;15.20;99.90;;;;;;5067876;28;20400;-61
2021/08/27 05:59:54;;;;;;;17.87;8.50;;;15.20;99.90;;;;;;5068233;28;20478;-61
2021/08/27 06:02:20;;;;;;;14.15;8.15;;;15.50;99.90;;;;;;5069265;28;20842;-62
2021/08/27 06:04:45;;;;;;;12.00;7.30;;;16.20;99.90;;;;;;5068826;28;20469;-60
2021/08/27 06:07:11;;;;;;;14.43;7.23;;;16.50;99.90;;;;;;5067839;28;20391;-62
2021/08/27 06:09:37;;;;;;;11.90;7.18;;;17.00;99.90;;;;;;5061632;28;20418;-61
2021/08/27 06:12:03;;;;;;;12.27;7.27;;;17.30;99.90;;;;;;5073835;28;20411;-62
2021/08/27 06:14:28;;;;;;;12.30;7.35;;;17.50;99.90;;;;;;5060168;28;20484;-62
2021/08/27 06:16:54;;;;;;;12.30;7.30;;;17.70;99.90;;;;;;5062498;28;20512;-62
2021/08/27 06:19:20;;;;;;;12.60;7.20;;;17.70;99.90;;;;;;5053176;28;20816;-62
2021/08/27 06:21:46;;;;;;;12.18;7.15;;;17.50;99.90;;;;;;5050973;28;20397;-62
2021/08/27 06:24:11;;;;;;;10.83;6.40;;;17.30;99.90;;;;;;5053721;28;20477;-62
2021/08/27 06:26:37;;;;;;;14.40;6.50;;;17.40;99.90;;;;;;5064593;28;20909;-60
2021/08/27 06:29:04;;;;;;;11.82;6.78;;;17.70;99.90;;;;;;5048460;28;20507;-60
2021/08/27 06:31:31;;;;;;;10.90;6.10;;;17.30;99.90;;;;;;5061472;28;20391;-61
2021/08/27 06:33:57;;;;;;;10.18;5.95;;;16.70;99.90;;;;;;5054230;28;20395;-61
2021/08/27 06:36:23;;;;;;;11.25;5.90;;;16.80;99.90;;;;;;5052736;28;20482;-62
2021/08/27 06:38:49;;;;;;;9.00;5.63;;;17.40;99.90;;;;;;5051193;28;20393;-60
2021/08/27 06:41:15;;;;;;;9.30;4.80;;;17.60;99.90;;;;;;5065461;28;20397;-62
2021/08/27 06:43:44;;;;;;;11.68;5.57;;;18.80;99.90;;;;;;5057047;28;20413;-62
2021/08/27 06:46:16;;;;;;;11.00;4.80;;;19.10;99.90;;;;;;5051076;28;20962;-63
2021/08/27 06:48:42;;;;;;;10.77;4.50;;;20.00;99.90;;;;;;5056962;28;20388;-62
2021/08/27 06:51:08;;;;;;;8.43;4.03;;;20.90;99.90;;;;;;5053703;28;20902;-63
2021/08/27 06:53:34;;;;;;;9.07;3.97;;;22.20;99.90;;;;;;5054374;28;20468;-64
2021/08/27 06:56:00;;;;;;;9.10;4.83;;;22.60;99.90;;;;;;5055427;28;20471;-63
2021/08/27 06:58:26;;;;;;;7.97;4.40;;;22.10;99.90;;;;;;5050812;28;20425;-61
2021/08/27 07:00:52;;;;;;;11.00;4.53;;;22.50;99.90;;;;;;5061413;28;20403;-60
2021/08/27 07:03:17;;;;;;;8.13;4.22;;;21.40;99.90;;;;;;5054046;28;20428;-63
2021/08/27 07:05:43;;;;;;;8.07;4.88;;;21.10;99.90;;;;;;5055193;28;20419;-62
2021/08/27 07:08:09;;;;;;;9.40;4.70;;;20.10;99.90;;;;;;5062436;28;20501;-62
2021/08/27 07:10:35;;;;;;;10.85;5.28;;;19.20;99.90;;;;;;5060480;28;20446;-62
2021/08/27 07:13:01;;;;;;;11.05;4.80;;;18.70;99.90;;;;;;5056279;28;20398;-62
2021/08/27 07:15:29;;;;;;;11.10;5.50;;;18.30;99.90;;;;;;5066218;28;20405;-63
2021/08/27 07:17:55;;;;;;;10.38;5.05;;;17.90;99.90;;;;;;5060899;28;20420;-61
2021/08/27 07:20:21;;;;;;;9.82;4.78;;;17.50;99.90;;;;;;5058116;28;20985;-63
2021/08/27 07:22:47;;;;;;;9.68;5.10;;;17.50;99.90;;;;;;5056015;28;20488;-63
2021/08/27 07:25:13;;;;;;;9.40;3.83;;;17.60;99.90;;;;;;5058196;28;20461;-64
2021/08/27 07:27:40;;;;;;;8.70;4.80;;;17.90;99.90;;;;;;5059987;28;20418;-63
2021/08/27 07:30:08;;;;;;;7.78;3.90;;;18.50;99.90;;;;;;5057172;28;20909;-65
2021/08/27 07:32:34;;;;;;;10.07;4.00;;;19.30;99.90;;;;;;5057816;28;20385;-65
2021/08/27 07:34:59;;;;;;;8.20;4.15;;;19.10;99.90;;;;;;5058640;28;20409;-64
2021/08/27 07:37:29;;;;;;;9.65;4.20;;;17.20;99.90;;;;;;5060133;28;20417;-64
2021/08/27 07:39:55;;;;;;;8.90;3.92;;;18.10;99.90;;;;;;5062056;28;20954;-60
2021/08/27 07:42:20;;;;;;;7.43;3.88;;;17.70;99.90;;;;;;5064282;28;20549;-63
2021/08/27 07:44:46;;;;;;;8.03;3.70;;;18.20;99.90;;;;;;5059269;28;20502;-64
2021/08/27 07:47:12;;;;;;;8.55;3.35;;;19.20;99.90;;;;;;5059410;28;21064;-62
2021/08/27 07:49:37;;;;;;;7.15;3.25;;;20.30;99.90;;;;;;5063514;28;20390;-61
2021/08/27 07:52:03;;;;;;;7.30;3.33;;;20.30;99.90;;;;;;5066556;28;20424;-65
2021/08/27 07:54:30;;;;;;;6.13;3.10;;;19.70;99.90;;;;;;5052086;28;20405;-65
2021/08/27 07:56:55;;;;;;;8.35;3.00;;;19.60;99.90;;;;;;5050816;28;20436;-64
2021/08/27 07:59:22;;;;;;;11.30;3.45;;;19.60;99.90;;;;;;5064935;28;20383;-64
2021/08/27 08:01:48;;;;;;;7.80;3.20;;;18.90;99.90;;;;;;5050513;28;20898;-63
2021/08/27 08:04:13;;;;;;;6.23;2.73;;;18.70;99.90;;;;;;5060853;28;20393;-63
2021/08/27 08:06:39;;;;;;;7.28;2.78;;;18.80;99.90;;;;;;5064552;28;20717;-62
2021/08/27 08:09:06;;;;;;;7.18;3.00;;;18.60;99.90;;;;;;5075503;28;21200;-63
2021/08/27 08:11:32;;;;;;;6.88;2.70;;;19.10;99.90;;;;;;5067060;28;20486;-64
2021/08/27 08:13:58;;;;;;;6.38;2.70;;;20.10;99.90;;;;;;5057152;28;20494;-60
2021/08/27 08:16:23;;;;;;;7.63;2.80;;;20.50;99.90;;;;;;5056416;28;20893;-62
2021/08/27 08:18:49;;;;;;;11.00;3.67;;;19.90;99.90;;;;;;5058270;28;20405;-64
2021/08/27 08:21:17;;;;;;;6.70;2.30;;;19.70;99.90;;;;;;5067142;28;20412;-64
2021/08/27 08:23:43;;;;;;;6.37;2.30;;;20.80;99.90;;;;;;5054608;28;20409;-65
2021/08/27 08:26:09;;;;;;;5.85;2.20;;;21.70;99.90;;;;;;5054315;28;20871;-64
2021/08/27 08:28:34;;;;;;;6.65;2.30;;;23.30;99.90;;;;;;5057383;28;20901;-64
2021/08/27 08:31:00;;;;;;;6.50;2.40;;;24.40;99.90;;;;;;5055539;28;20395;-65
2021/08/27 08:33:25;;;;;;;5.90;2.20;;;22.20;99.90;;;;;;5057770;28;20391;-63
2021/08/27 08:35:51;;;;;;;9.13;2.70;;;21.50;99.90;;;;;;5052553;28;21743;-65
2021/08/27 08:38:18;;;;;;;6.30;2.30;;;21.30;99.90;;;;;;5054180;28;20488;-64
2021/08/27 08:40:45;;;;;;;6.70;2.40;;;21.80;99.90;;;;;;5054165;28;20401;-64
2021/08/27 08:43:12;;;;;;;7.38;2.00;;;22.60;99.90;;;;;;5054571;28;20429;-67
2021/08/27 08:45:47;;;;;;;7.03;2.50;;;24.60;98.90;;;;;;5054798;28;20416;-64
2021/08/27 08:48:17;;;;;;;7.25;2.92;;;25.40;97.00;;;;;;5059926;28;20385;-66
2021/08/27 08:50:44;;;;;;;7.10;3.25;;;24.40;95.60;;;;;;5053247;28;20405;-65
2021/08/27 08:53:11;;;;;;;6.07;2.65;;;21.80;99.90;;;;;;5056001;28;20405;-65
2021/08/27 08:55:41;;;;;;;6.93;2.70;;;20.50;99.90;;;;;;5055504;28;20408;-67
2021/08/27 08:58:08;;;;;;;7.50;2.60;;;20.30;99.90;;;;;;5058562;28;20438;-67
2021/08/27 09:00:36;;;;;;;7.13;2.78;;;20.60;99.90;;;;;;5053618;28;20412;-62
2021/08/27 09:03:02;;;;;;;6.70;2.22;;;21.60;99.90;;;;;;5050710;28;20433;-65
2021/08/27 09:05:28;;;;;;;6.18;2.40;;;23.20;99.90;;;;;;5051107;28;20404;-64
2021/08/27 09:07:54;;;;;;;6.90;2.50;;;23.70;98.40;;;;;;5056372;28;20396;-65
2021/08/27 09:10:21;;;;;;;6.57;2.58;;;23.10;98.50;;;;;;5054992;28;20406;-64
2021/08/27 09:12:48;;;;;;;6.13;2.53;;;23.20;98.90;;;;;;5050933;28;20424;-65
2021/08/27 09:15:15;;;;;;;7.55;3.00;;;24.00;97.70;;;;;;5052500;28;20416;-65
2021/08/27 09:17:48;;;;;;;6.18;2.60;;;24.80;96.50;;;;;;5051510;28;20437;-66
2021/08/27 09:20:17;;;;;;;7.30;2.60;;;24.50;95.20;;;;;;5054745;28;20463;-65
2021/08/27 09:22:52;;;;;;;6.32;2.50;;;22.70;96.80;;;;;;5049525;28;20394;-64
2021/08/27 09:25:20;;;;;;;8.30;3.45;;;21.50;98.90;;;;;;5053115;28;20451;-67
2021/08/27 09:28:06;;;;;;;8.52;3.08;;;20.50;99.90;;;;;;5049708;28;20393;-66
2021/08/27 09:30:35;;;;;;;6.93;2.70;;;20.70;99.90;;;;;;5063803;28;20518;-64
2021/08/27 09:33:12;;;;;;;8.37;2.70;;;21.90;99.90;;;;;;5068440;28;20404;-62
2021/08/27 09:35:38;;;;;;;6.93;2.28;;;24.30;95.70;;;;;;5065959;28;20472;-65
2021/08/27 09:38:14;;;;;;;6.30;2.80;;;25.80;92.00;;;;;;5064489;28;20812;-67
2021/08/27 09:40:40;;;;;;;6.18;3.60;;;26.80;85.90;;;;;;5064824;28;20416;-65
2021/08/27 09:43:06;;;;;;;7.35;6.60;;;27.10;80.40;;;;;;5066842;28;20416;-65
2021/08/27 09:45:35;;;;;;;14.53;5.13;;;27.60;78.10;;;;;;5066848;28;20737;-65
2021/08/27 09:48:06;;;;;;;7.40;2.50;;;28.20;73.20;;;;;;5067311;28;20391;-61
2021/08/27 09:50:34;;;;;;;7.20;2.15;;;26.80;74.80;;;;;;5068672;28;20411;-62
2021/08/27 09:53:01;;;;;;;6.95;2.63;;;26.10;76.90;;;;;;5050124;28;20497;-62
2021/08/27 09:55:29;;;;;;;7.50;2.35;;;26.60;76.70;;;;;;5061855;28;20388;-66
2021/08/27 09:58:11;;;;;;;7.05;2.10;;;26.90;76.50;;;;;;5060629;28;20496;-66
2021/08/27 10:00:41;;;;;;;7.93;2.50;;;27.70;72.00;;;;;;5052165;28;20439;-63
2021/08/27 10:03:20;;;;;;;7.18;3.00;;;28.00;71.30;;;;;;5050451;28;20794;-65
2021/08/27 10:05:48;;;;;;;8.40;2.88;;;27.20;70.40;;;;;;5050759;28;20412;-66
2021/08/27 10:08:25;;;;;;;6.40;2.37;;;25.90;72.60;;;;;;5057598;28;20413;-68
2021/08/27 10:10:54;;;;;;;5.90;2.28;;;25.90;75.70;;;;;;5055595;28;20446;-66
2021/08/27 10:13:21;;;;;;;6.32;2.60;;;25.80;73.70;;;;;;5054305;28;20480;-67
2021/08/27 10:15:47;;;;;;;8.82;2.80;;;25.00;75.80;;;;;;5055935;28;20561;-63
2021/08/27 10:18:13;;;;;;;8.40;3.10;;;24.40;78.20;;;;;;5053872;28;20894;-63
2021/08/27 10:20:41;;;;;;;7.85;2.85;;;23.80;81.30;;;;;;5048843;28;20405;-64
2021/08/27 10:23:09;;;;;;;8.10;3.40;;;22.50;87.00;;;;;;5060474;28;20536;-63
2021/08/27 10:25:36;;;;;;;7.95;3.80;;;21.30;90.60;;;;;;5054386;28;20424;-64
2021/08/27 10:28:02;;;;;;;8.35;3.40;;;20.40;92.80;;;;;;5060611;28;20488;-62
2021/08/27 10:30:51;;;;;;;8.20;3.42;;;19.80;93.60;;;;;;5049613;28;20477;-64
2021/08/27 10:33:40;;;;;;;7.70;3.10;;;19.40;95.10;;;;;;5051771;28;20424;-64
2021/08/27 10:36:25;;;;;;;9.40;3.20;;;19.30;96.40;;;;;;5062229;28;20870;-64
2021/08/27 10:38:54;;;;;;;8.93;3.10;;;19.40;97.60;;;;;;5061062;28;20404;-64
2021/08/27 10:41:20;;;;;;;8.77;3.70;;;19.20;99.90;;;;;;5058073;28;20395;-64
2021/08/27 10:44:04;;;;;;;9.32;4.03;;;18.90;99.90;;;;;;5064601;28;20431;-63
2021/08/27 10:46:45;;;;;;;8.75;3.97;;;18.80;99.90;;;;;;5063425;28;20500;-63
2021/08/27 10:49:40;;;;;;;9.13;3.70;;;18.70;99.90;;;;;;5065043;28;20397;-65
2021/08/27 10:52:33;;;;;;;10.85;4.20;;;18.60;99.90;;;;;;5064499;28;20384;-63
2021/08/27 10:55:02;;;;;;;9.25;4.30;;;18.50;99.90;;;;;;5056430;28;20383;-61
2021/08/27 10:57:28;;;;;;;7.83;4.17;;;18.50;99.90;;;;;;5059517;28;20412;-67
2021/08/27 11:00:01;;;;;;;8.30;4.60;;;18.60;99.90;;;;;;5056808;28;20408;-63
2021/08/27 11:02:27;;;;;;;9.05;4.20;;;18.70;99.90;;;;;;5056279;28;20401;-63
2021/08/27 11:04:54;;;;;;;9.17;4.53;;;18.90;99.90;;;;;;5060242;28;20492;-63
2021/08/27 11:07:26;;;;;;;7.38;4.55;;;18.70;99.90;;;;;;5065613;28;20415;-63
2021/08/27 11:10:10;;;;;;;7.97;4.30;;;18.80;99.90;;;;;;5063735;28;20853;-63
2021/08/27 11:12:36;;;;;;;9.43;3.70;;;19.90;99.90;;;;;;5054675;28;20736;-64
2021/08/27 11:15:29;;;;;;;8.10;4.10;;;20.20;99.90;;;;;;5056636;28;20432;-61
2021/08/27 11:18:16;;;;;;;9.67;4.47;;;20.40;99.90;;;;;;5059109;28;20895;-64
2021/08/27 11:20:42;;;;;;;8.60;4.72;;;21.10;99.90;;;;;;5068892;28;20492;-64
2021/08/27 11:23:09;;;;;;;7.25;3.95;;;21.00;99.90;;;;;;5061643;28;20825;-64
2021/08/27 11:25:38;;;;;;;8.85;4.00;;;21.10;99.90;;;;;;5063607;28;20380;-64
2021/08/27 11:28:16;;;;;;;7.18;3.30;;;20.40;99.90;;;;;;5070230;28;20647;-61
2021/08/27 11:30:44;;;;;;;7.50;3.47;;;20.00;99.90;;;;;;5053381;28;20409;-65
2021/08/27 11:34:00;;;;;;;8.83;3.60;;;19.80;99.90;;;;;;5056065;28;20397;-65
2021/08/27 11:36:32;;;;;;;8.27;2.97;;;19.80;99.90;;;;;;5049354;28;20415;-65
2021/08/27 11:39:00;;;;;;;8.07;3.25;;;19.50;99.90;;;;;;5050807;28;20401;-64
2021/08/27 11:41:26;;;;;;;8.30;3.50;;;18.80;99.90;;;;;;5050674;28;20425;-64
2021/08/27 11:44:12;;;;;;;9.20;3.13;;;18.50;99.90;;;;;;5062585;28;20404;-65
2021/08/27 11:46:40;;;;;;;6.70;3.53;;;18.40;99.90;;;;;;5056506;28;20401;-65
2021/08/27 11:49:29;;;;;;;9.40;3.23;;;18.70;99.90;;;;;;5065956;28;20867;-64
2021/08/27 11:52:10;;;;;;;5.47;2.50;;;19.10;99.90;;;;;;5055300;28;20416;-65
2021/08/27 11:54:36;;;;;;;7.95;3.90;;;19.50;99.90;;;;;;5054792;28;20397;-64
2021/08/27 11:57:02;;;;;;;8.53;2.93;;;19.90;99.90;;;;;;5051239;28;20420;-63
2021/08/27 11:59:28;;;;;;;8.60;3.30;;;19.80;99.90;;;;;;5056274;28;20385;-64
2021/08/27 12:02:17;;;;;;;7.68;3.47;;;19.60;99.90;;;;;;5050770;28;20485;-65
2021/08/27 12:04:43;;;;;;;8.45;2.85;;;19.60;99.90;;;;;;5051523;28;20807;-65
2021/08/27 12:07:17;;;;;;;6.87;2.80;;;19.40;99.90;;;;;;5052622;28;20478;-64
2021/08/27 12:09:43;;;;;;;7.32;2.70;;;19.60;99.90;;;;;;5052524;28;20381;-64
2021/08/27 12:12:30;;;;;;;8.05;2.92;;;19.80;99.90;;;;;;5050106;28;20472;-65
2021/08/27 12:14:55;;;;;;;7.70;2.60;;;19.90;99.90;;;;;;5050942;28;20518;-65
2021/08/27 12:17:26;;;;;;;8.40;2.90;;;20.00;99.90;;;;;;5050370;28;20480;-65
2021/08/27 12:19:53;;;;;;;8.00;3.03;;;19.60;99.90;;;;;;5051081;28;20954;-65
2021/08/27 12:22:21;;;;;;;8.50;3.30;;;19.70;99.90;;;;;;5083009;28;20396;-63
2021/08/27 12:24:50;;;;;;;7.80;3.20;;;19.90;99.90;;;;;;5052291;28;20492;-64
2021/08/27 12:27:15;;;;;;;7.70;2.90;;;20.10;99.90;;;;;;5052126;28;20389;-63
2021/08/27 12:29:41;;;;;;;9.38;3.35;;;20.50;99.90;;;;;;5049695;28;20445;-65
2021/08/27 12:32:13;;;;;;;9.90;3.05;;;21.00;99.90;;;;;;5053849;28;20488;-62
2021/08/27 12:34:41;;;;;;;7.47;2.88;;;21.40;99.90;;;;;;5057662;28;20393;-64
2021/08/27 12:37:07;;;;;;;8.45;2.85;;;21.40;99.90;;;;;;5055068;28;20409;-63
2021/08/27 12:39:33;;;;;;;7.25;2.80;;;21.50;99.90;;;;;;5051855;28;20385;-64
2021/08/27 12:42:13;;;;;;;6.78;2.60;;;21.10;99.90;;;;;;5081310;28;20409;-64
2021/08/27 12:44:56;;;;;;;7.22;2.75;;;20.50;99.90;;;;;;5051713;28;20747;-64
2021/08/27 12:47:34;;;;;;;7.10;2.60;;;21.20;99.90;;;;;;5053452;28;20497;-63
2021/08/27 12:50:05;;;;;;;5.40;2.40;;;21.50;99.90;;;;;;5057158;28;20384;-62
2021/08/27 12:52:30;;;;;;;5.53;2.10;;;21.10;98.90;;;;;;5055064;28;20400;-63